createdAt,value
2018-11-06T00:00:56.335Z,12.80
2018-11-06T00:03:29.948Z,12.80
2018-11-06T00:05:58.066Z,12.90
2018-11-06T00:08:26.159Z,12.80
2018-11-06T00:10:54.281Z,12.80
2018-11-06T00:13:22.400Z,12.90
2018-11-06T00:15:50.489Z,12.90
2018-11-06T00:18:18.611Z,12.80
2018-11-06T00:20:46.723Z,12.80
2018-11-06T00:23:14.848Z,12.80
2018-11-06T00:25:42.952Z,12.80
2018-11-06T00:28:11.071Z,12.70
2018-11-06T00:30:39.176Z,12.80
2018-11-06T00:33:07.291Z,12.70
2018-11-06T00:35:35.403Z,12.70
2018-11-06T00:38:03.532Z,12.70
2018-11-06T00:40:31.728Z,12.70
2018-11-06T00:42:59.839Z,12.70
2018-11-06T00:45:27.984Z,12.60
2018-11-06T00:47:56.104Z,12.60
2018-11-06T00:50:24.192Z,12.60
2018-11-06T00:52:52.303Z,12.60
2018-11-06T00:55:20.429Z,12.60
2018-11-06T00:57:48.540Z,12.60
2018-11-06T01:00:23.533Z,12.60
2018-11-06T01:02:51.664Z,12.60
2018-11-06T01:05:19.794Z,12.60
2018-11-06T01:07:48.816Z,12.50
2018-11-06T01:10:17.096Z,12.40
2018-11-06T01:12:45.227Z,12.50
2018-11-06T01:15:14.663Z,12.50
2018-11-06T01:17:43.850Z,12.50
2018-11-06T01:20:13.885Z,12.50
2018-11-06T01:22:42.012Z,12.50
2018-11-06T01:25:10.731Z,12.50
2018-11-06T01:27:39.122Z,12.50
2018-11-06T01:30:12.219Z,12.50
2018-11-06T01:32:40.382Z,12.50
2018-11-06T01:35:09.585Z,12.40
2018-11-06T01:37:37.719Z,12.40
2018-11-06T01:40:07.297Z,12.40
2018-11-06T01:42:35.411Z,12.50
2018-11-06T01:45:03.675Z,12.40
2018-11-06T01:47:31.767Z,12.40
2018-11-06T01:49:59.883Z,12.40
2018-11-06T01:52:28.040Z,12.40
2018-11-06T01:54:56.160Z,12.40
2018-11-06T01:57:24.279Z,12.40
2018-11-06T01:59:52.391Z,12.40
2018-11-06T02:02:20.519Z,12.40
2018-11-06T02:04:48.625Z,12.30
2018-11-06T02:07:16.735Z,12.30
2018-11-06T02:09:44.855Z,12.30
2018-11-06T02:12:12.988Z,12.30
2018-11-06T02:14:41.068Z,12.20
2018-11-06T02:17:09.243Z,12.20
2018-11-06T02:19:37.354Z,12.20
2018-11-06T02:22:05.473Z,12.20
2018-11-06T02:24:33.568Z,12.20
2018-11-06T02:27:01.667Z,12.20
2018-11-06T02:29:29.796Z,12.20
2018-11-06T02:31:57.912Z,12.20
2018-11-06T02:34:26.036Z,12.20
2018-11-06T02:36:54.151Z,12.10
2018-11-06T02:39:22.344Z,12.10
2018-11-06T02:41:50.455Z,12.10
2018-11-06T02:44:18.575Z,12.10
2018-11-06T02:46:46.692Z,12.10
2018-11-06T02:49:14.783Z,12.10
2018-11-06T02:51:42.909Z,12.10
2018-11-06T02:54:11.016Z,12.10
2018-11-06T02:56:39.147Z,12.00
2018-11-06T02:59:07.388Z,12.10
2018-11-06T03:01:35.535Z,12.00
2018-11-06T03:04:03.655Z,12.00
2018-11-06T03:06:31.764Z,12.00
2018-11-06T03:08:59.883Z,12.10
2018-11-06T03:11:28.020Z,12.10
2018-11-06T03:13:56.142Z,12.00
2018-11-06T03:16:24.284Z,12.00
2018-11-06T03:18:52.449Z,12.00
2018-11-06T03:21:20.603Z,12.00
2018-11-06T03:23:48.718Z,11.90
2018-11-06T03:26:16.820Z,11.90
2018-11-06T03:28:44.992Z,12.00
2018-11-06T03:31:13.099Z,11.90
2018-11-06T03:33:41.199Z,11.90
2018-11-06T03:36:09.359Z,11.90
2018-11-06T03:38:37.483Z,11.90
2018-11-06T03:41:05.664Z,11.90
2018-11-06T03:43:33.787Z,11.90
2018-11-06T03:46:01.968Z,11.90
2018-11-06T03:48:30.079Z,11.90
2018-11-06T03:50:58.202Z,11.80
2018-11-06T03:53:26.328Z,11.80
2018-11-06T03:55:54.460Z,11.80
2018-11-06T03:58:22.652Z,11.80
2018-11-06T04:00:50.813Z,11.80
2018-11-06T04:03:18.968Z,11.70
2018-11-06T04:05:47.113Z,11.70
2018-11-06T04:08:15.269Z,11.70
2018-11-06T04:10:43.411Z,11.70
2018-11-06T04:13:11.513Z,11.70
2018-11-06T04:15:39.715Z,11.70
2018-11-06T04:18:07.832Z,11.70
2018-11-06T04:20:35.960Z,11.70
2018-11-06T04:23:04.076Z,11.60
2018-11-06T04:25:32.208Z,11.60
2018-11-06T04:28:00.323Z,11.70
2018-11-06T04:30:28.424Z,11.60
2018-11-06T04:32:56.555Z,11.60
2018-11-06T04:35:24.647Z,11.60
2018-11-06T04:37:52.803Z,11.60
2018-11-06T04:40:20.905Z,11.70
2018-11-06T04:42:49.020Z,11.70
2018-11-06T04:45:17.136Z,11.60
2018-11-06T04:47:45.238Z,11.60
2018-11-06T04:50:14.000Z,11.50
2018-11-06T04:52:42.333Z,11.50
2018-11-06T04:55:11.512Z,11.50
2018-11-06T04:57:39.620Z,11.50
2018-11-06T05:00:10.504Z,11.60
2018-11-06T05:02:39.013Z,11.50
2018-11-06T05:05:07.775Z,11.50
2018-11-06T05:07:42.152Z,11.50
2018-11-06T05:10:11.873Z,11.50
2018-11-06T05:12:40.040Z,11.50
2018-11-06T05:15:10.818Z,11.50
2018-11-06T05:17:38.958Z,11.40
2018-11-06T05:20:11.573Z,11.50
2018-11-06T05:22:39.691Z,11.50
2018-11-06T05:25:08.245Z,11.50
2018-11-06T05:27:36.629Z,11.50
2018-11-06T05:30:05.352Z,11.50
2018-11-06T05:32:33.473Z,11.40
2018-11-06T05:35:01.733Z,11.40
2018-11-06T05:37:29.728Z,11.40
2018-11-06T05:40:09.375Z,11.40
2018-11-06T05:42:37.476Z,11.40
2018-11-06T05:45:05.771Z,11.40
2018-11-06T05:47:33.908Z,11.40
2018-11-06T05:50:02.060Z,11.30
2018-11-06T05:52:30.171Z,11.40
2018-11-06T05:54:58.283Z,11.40
2018-11-06T05:57:26.392Z,11.40
2018-11-06T05:59:54.540Z,11.40
2018-11-06T06:02:22.664Z,11.40
2018-11-06T06:04:50.760Z,11.30
2018-11-06T06:07:19.036Z,11.30
2018-11-06T06:09:47.168Z,11.40
2018-11-06T06:12:15.287Z,11.40
2018-11-06T06:14:43.418Z,11.40
2018-11-06T06:17:11.571Z,11.40
2018-11-06T06:19:39.637Z,11.40
2018-11-06T06:22:07.739Z,11.50
2018-11-06T06:24:35.861Z,11.50
2018-11-06T06:27:04.124Z,11.40
2018-11-06T06:29:32.255Z,11.50
2018-11-06T06:32:00.344Z,11.50
2018-11-06T06:34:28.532Z,11.50
2018-11-06T06:36:56.800Z,11.50
2018-11-06T06:39:24.920Z,11.50
2018-11-06T06:41:53.024Z,11.50
2018-11-06T06:44:21.236Z,11.60
2018-11-06T06:46:49.429Z,11.60
2018-11-06T06:49:17.543Z,11.60
2018-11-06T06:51:45.675Z,11.60
2018-11-06T06:54:14.256Z,11.60
2018-11-06T06:56:42.192Z,11.60
2018-11-06T06:59:10.279Z,11.70
2018-11-06T07:01:38.400Z,11.70
2018-11-06T07:04:06.506Z,11.80
2018-11-06T07:06:34.596Z,11.80
2018-11-06T07:09:02.732Z,11.80
2018-11-06T07:11:31.052Z,11.80
2018-11-06T07:13:59.153Z,11.80
2018-11-06T07:16:27.259Z,11.90
2018-11-06T07:18:55.642Z,11.90
2018-11-06T07:21:23.900Z,11.90
2018-11-06T07:23:52.060Z,12.00
2018-11-06T07:26:20.175Z,12.00
2018-11-06T07:28:48.334Z,12.10
2018-11-06T07:31:17.037Z,12.10
2018-11-06T07:33:45.210Z,12.20
2018-11-06T07:36:13.389Z,12.20
2018-11-06T07:38:41.498Z,12.30
2018-11-06T07:41:09.774Z,12.30
2018-11-06T07:43:37.863Z,12.30
2018-11-06T07:46:05.967Z,12.40
2018-11-06T07:48:34.118Z,12.50
2018-11-06T07:51:02.232Z,12.50
2018-11-06T07:53:30.346Z,12.60
2018-11-06T07:55:58.501Z,12.70
2018-11-06T07:58:26.552Z,12.70
2018-11-06T08:00:54.683Z,12.80
2018-11-06T08:03:22.788Z,12.90
2018-11-06T08:05:50.883Z,13.00
2018-11-06T08:08:19.037Z,13.50
2018-11-06T08:10:47.258Z,14.00
2018-11-06T08:13:15.391Z,14.50
2018-11-06T08:15:43.496Z,14.90
2018-11-06T08:18:11.596Z,15.20
2018-11-06T08:20:39.744Z,15.50
2018-11-06T08:23:07.778Z,15.70
2018-11-06T08:25:35.863Z,16.10
2018-11-06T08:28:03.927Z,16.40
2018-11-06T08:30:32.080Z,16.70
2018-11-06T08:33:00.112Z,16.20
2018-11-06T08:35:28.186Z,16.00
2018-11-06T08:37:56.280Z,15.60
2018-11-06T08:40:24.382Z,15.70
2018-11-06T08:42:52.472Z,15.70
2018-11-06T08:45:20.561Z,16.00
2018-11-06T08:47:48.634Z,15.90
2018-11-06T08:50:18.080Z,16.00
2018-11-06T08:52:46.279Z,16.30
2018-11-06T08:55:15.148Z,16.10
2018-11-06T08:57:43.939Z,16.00
2018-11-06T09:00:14.176Z,16.10
2018-11-06T09:02:43.006Z,16.20
2018-11-06T09:05:12.574Z,16.40
2018-11-06T09:07:40.652Z,16.40
2018-11-06T09:10:10.034Z,16.40
2018-11-06T09:12:38.924Z,16.30
2018-11-06T09:15:08.449Z,16.30
2018-11-06T09:17:36.801Z,16.40
2018-11-06T09:20:05.295Z,16.70
2018-11-06T09:22:33.388Z,16.80
2018-11-06T09:25:01.487Z,16.90
2018-11-06T09:27:29.562Z,17.10
2018-11-06T09:29:57.651Z,17.70
2018-11-06T09:32:25.753Z,17.70
2018-11-06T09:34:53.868Z,17.70
2018-11-06T09:37:21.954Z,17.70
2018-11-06T09:39:50.034Z,17.80
2018-11-06T09:42:18.136Z,17.70
2018-11-06T09:44:46.240Z,17.80
2018-11-06T09:47:14.329Z,17.90
2018-11-06T09:49:42.410Z,18.20
2018-11-06T09:52:10.620Z,18.20
2018-11-06T09:54:38.643Z,18.40
2018-11-06T09:57:06.820Z,18.40
2018-11-06T09:59:34.900Z,18.90
2018-11-06T10:02:02.992Z,19.20
2018-11-06T10:04:31.262Z,19.70
2018-11-06T10:06:59.710Z,19.70
2018-11-06T10:09:27.588Z,19.70
2018-11-06T10:11:55.840Z,19.30
2018-11-06T10:14:24.015Z,19.40
2018-11-06T10:16:52.210Z,19.10
2018-11-06T10:19:20.340Z,19.00
2018-11-06T10:21:48.562Z,18.70
2018-11-06T10:24:16.687Z,18.40
2018-11-06T10:26:45.237Z,18.30
2018-11-06T10:29:13.339Z,18.40
2018-11-06T10:31:41.483Z,18.60
2018-11-06T10:34:09.607Z,18.40
2018-11-06T10:36:37.707Z,18.20
2018-11-06T10:39:09.487Z,17.70
2018-11-06T10:41:37.611Z,17.50
2018-11-06T10:44:06.240Z,17.80
2018-11-06T10:46:34.528Z,17.80
2018-11-06T10:49:02.672Z,18.10
2018-11-06T10:51:30.935Z,18.00
2018-11-06T10:53:59.168Z,17.80
2018-11-06T10:56:27.266Z,17.70
2018-11-06T10:58:55.364Z,17.60
2018-11-06T11:01:28.989Z,17.60
2018-11-06T11:04:02.615Z,17.40
2018-11-06T11:06:30.761Z,17.10
2018-11-06T11:08:59.037Z,17.30
2018-11-06T11:11:27.157Z,17.40
2018-11-06T11:13:55.331Z,17.10
2018-11-06T11:16:23.564Z,17.00
2018-11-06T11:18:51.755Z,17.00
2018-11-06T11:21:19.879Z,17.20
2018-11-06T11:23:47.961Z,17.40
2018-11-06T11:26:16.157Z,17.50
2018-11-06T11:28:44.248Z,18.00
2018-11-06T11:31:12.325Z,18.30
2018-11-06T11:33:40.411Z,18.10
2018-11-06T11:36:08.505Z,18.00
2018-11-06T11:38:36.589Z,17.70
2018-11-06T11:41:04.656Z,17.40
2018-11-06T11:43:32.762Z,17.30
2018-11-06T11:46:00.881Z,17.40
2018-11-06T11:48:28.972Z,17.50
2018-11-06T11:50:57.045Z,17.50
2018-11-06T11:53:25.131Z,17.50
2018-11-06T11:55:53.204Z,17.50
2018-11-06T11:58:21.275Z,17.50
2018-11-06T12:00:49.344Z,17.30
2018-11-06T12:03:17.444Z,17.20
2018-11-06T12:05:45.612Z,17.00
2018-11-06T12:08:13.692Z,17.10
2018-11-06T12:10:41.780Z,17.20
2018-11-06T12:13:09.872Z,17.30
2018-11-06T12:15:38.523Z,17.10
2018-11-06T12:18:06.655Z,17.10
2018-11-06T12:20:34.719Z,17.10
2018-11-06T12:23:02.810Z,17.20
2018-11-06T12:25:37.932Z,17.40
2018-11-06T12:28:06.000Z,17.40
2018-11-06T12:30:34.126Z,17.20
2018-11-06T12:33:02.196Z,17.20
2018-11-06T12:35:30.280Z,17.20
2018-11-06T12:37:58.393Z,17.40
2018-11-06T12:40:26.476Z,17.70
2018-11-06T12:42:54.605Z,17.80
2018-11-06T12:45:22.744Z,18.10
2018-11-06T12:47:50.905Z,18.00
2018-11-06T12:50:18.989Z,17.90
2018-11-06T12:52:47.071Z,18.10
2018-11-06T12:55:16.020Z,18.20
2018-11-06T12:57:44.407Z,18.60
2018-11-06T13:00:16.469Z,18.60
2018-11-06T13:02:44.572Z,18.80
2018-11-06T13:05:12.644Z,18.90
2018-11-06T13:07:41.599Z,19.10
2018-11-06T13:10:10.519Z,19.30
2018-11-06T13:12:39.083Z,19.30
2018-11-06T13:15:07.567Z,19.40
2018-11-06T13:17:36.240Z,19.20
2018-11-06T13:20:05.856Z,19.50
2018-11-06T13:22:33.944Z,19.60
2018-11-06T13:25:02.039Z,20.00
2018-11-06T13:27:30.180Z,19.80
2018-11-06T13:29:58.277Z,19.70
2018-11-06T13:32:26.454Z,19.60
2018-11-06T13:34:54.568Z,19.20
2018-11-06T13:37:22.660Z,18.80
2018-11-06T13:39:50.740Z,18.50
2018-11-06T13:42:18.889Z,17.90
2018-11-06T13:44:47.270Z,17.50
2018-11-06T13:47:15.057Z,17.60
2018-11-06T13:49:43.128Z,17.90
2018-11-06T13:52:11.319Z,18.10
2018-11-06T13:54:39.367Z,18.40
2018-11-06T13:57:07.655Z,18.50
2018-11-06T13:59:35.737Z,18.40
2018-11-06T14:02:03.835Z,18.10
2018-11-06T14:04:31.924Z,17.80
2018-11-06T14:09:34.451Z,17.10
2018-11-06T14:12:02.532Z,16.90
2018-11-06T14:14:30.609Z,16.80
2018-11-06T14:16:58.695Z,16.70
2018-11-06T14:19:26.792Z,16.70
2018-11-06T14:21:54.923Z,16.50
2018-11-06T14:24:23.035Z,16.30
2018-11-06T14:26:51.197Z,16.20
2018-11-06T14:29:19.319Z,16.20
2018-11-06T14:31:47.447Z,16.00
2018-11-06T14:34:15.562Z,16.00
2018-11-06T14:36:43.691Z,15.90
2018-11-06T14:39:11.787Z,15.80
2018-11-06T14:41:39.903Z,15.80
2018-11-06T14:44:08.043Z,15.80
2018-11-06T14:46:36.157Z,15.70
2018-11-06T14:49:04.516Z,15.70
2018-11-06T14:51:32.543Z,15.70
2018-11-06T14:54:00.664Z,15.60
2018-11-06T14:56:28.760Z,15.60
2018-11-06T14:58:56.884Z,15.50
2018-11-06T15:01:24.979Z,15.50
2018-11-06T15:03:53.080Z,15.50
2018-11-06T15:06:21.180Z,15.40
2018-11-06T15:08:49.300Z,15.40
2018-11-06T15:11:17.432Z,15.30
2018-11-06T15:13:45.547Z,15.20
2018-11-06T15:16:13.672Z,15.20
2018-11-06T15:18:41.779Z,15.10
2018-11-06T15:21:16.328Z,15.10
2018-11-06T15:23:44.602Z,15.10
2018-11-06T15:26:12.711Z,14.90
2018-11-06T15:28:40.844Z,14.90
2018-11-06T15:31:08.958Z,14.90
2018-11-06T15:33:37.089Z,14.80
2018-11-06T15:36:05.445Z,14.90
2018-11-06T15:38:33.868Z,14.90
2018-11-06T15:41:02.092Z,14.80
2018-11-06T15:43:30.147Z,14.70
2018-11-06T15:45:58.272Z,14.70
2018-11-06T15:48:26.451Z,14.60
2018-11-06T15:50:54.527Z,14.60
2018-11-06T15:53:22.733Z,14.50
2018-11-06T15:55:50.839Z,14.50
2018-11-06T15:58:20.508Z,14.50
2018-11-06T16:00:48.717Z,14.50
2018-11-06T16:03:16.850Z,14.40
2018-11-06T16:05:45.022Z,14.40
2018-11-06T16:08:13.249Z,14.30
2018-11-06T16:10:41.324Z,14.30
2018-11-06T16:13:09.516Z,14.20
2018-11-06T16:15:37.744Z,14.30
2018-11-06T16:18:06.065Z,14.20
2018-11-06T16:20:34.189Z,14.20
2018-11-06T16:23:02.337Z,14.20
2018-11-06T16:25:30.499Z,14.20
2018-11-06T16:27:58.689Z,14.10
2018-11-06T16:30:26.824Z,14.00
2018-11-06T16:32:54.968Z,14.10
2018-11-06T16:35:23.652Z,14.00
2018-11-06T16:37:52.672Z,14.00
2018-11-06T16:40:20.844Z,14.00
2018-11-06T16:42:49.383Z,13.90
2018-11-06T16:45:19.182Z,13.90
2018-11-06T16:47:48.325Z,13.90
2018-11-06T16:50:17.479Z,13.80
2018-11-06T16:52:45.670Z,13.80
2018-11-06T16:55:14.273Z,13.80
2018-11-06T16:57:43.386Z,13.70
2018-11-06T17:00:24.515Z,13.80
2018-11-06T17:02:52.661Z,13.70
2018-11-06T17:05:20.864Z,13.70
2018-11-06T17:07:49.878Z,13.70
2018-11-06T17:10:19.421Z,13.60
2018-11-06T17:12:48.143Z,13.60
2018-11-06T17:15:18.058Z,13.60
2018-11-06T17:17:47.122Z,13.60
2018-11-06T17:20:15.668Z,13.60
2018-11-06T17:22:45.616Z,13.60
2018-11-06T17:25:15.912Z,13.60
2018-11-06T17:27:44.080Z,13.60
2018-11-06T17:30:13.993Z,13.60
2018-11-06T17:32:42.646Z,13.60
2018-11-06T17:35:12.495Z,13.60
2018-11-06T17:37:42.261Z,13.60
2018-11-06T17:40:12.632Z,13.70
2018-11-06T17:42:42.676Z,13.60
2018-11-06T17:45:13.165Z,13.60
2018-11-06T17:47:41.965Z,13.60
2018-11-06T17:50:23.337Z,13.70
2018-11-06T17:52:51.498Z,13.60
2018-11-06T17:55:20.764Z,13.60
2018-11-06T17:57:48.743Z,13.60
2018-11-06T18:00:19.892Z,13.60
2018-11-06T18:02:48.191Z,13.60
2018-11-06T18:05:17.321Z,13.70
2018-11-06T18:07:45.556Z,13.80
2018-11-06T18:10:18.067Z,13.80
2018-11-06T18:12:46.309Z,13.70
2018-11-06T18:15:14.580Z,13.70
2018-11-06T18:17:43.083Z,13.70
2018-11-06T18:20:12.064Z,13.70
2018-11-06T18:22:40.997Z,13.70
2018-11-06T18:25:09.924Z,13.60
2018-11-06T18:27:38.077Z,13.70
2018-11-06T18:30:08.940Z,13.70
2018-11-06T18:32:37.166Z,13.70
2018-11-06T18:35:06.608Z,13.60
2018-11-06T18:37:34.784Z,13.70
2018-11-06T18:40:02.952Z,13.70
2018-11-06T18:42:31.117Z,13.70
2018-11-06T18:44:59.228Z,13.70
2018-11-06T18:47:27.432Z,13.70
2018-11-06T18:49:55.480Z,13.70
2018-11-06T18:52:23.609Z,13.60
2018-11-06T18:54:51.736Z,13.60
2018-11-06T18:57:19.895Z,13.60
2018-11-06T18:59:48.007Z,13.70
2018-11-06T19:02:16.215Z,13.70
2018-11-06T19:04:44.355Z,13.70
2018-11-06T19:07:12.460Z,13.70
2018-11-06T19:09:40.689Z,13.80
2018-11-06T19:12:08.792Z,13.70
2018-11-06T19:14:36.928Z,13.70
2018-11-06T19:17:11.843Z,13.70
2018-11-06T19:19:40.005Z,13.70
2018-11-06T19:22:08.118Z,13.70
2018-11-06T19:24:36.243Z,13.60
2018-11-06T19:27:04.379Z,13.60
2018-11-06T19:29:32.500Z,13.60
2018-11-06T19:32:00.656Z,13.60
2018-11-06T19:34:28.751Z,13.70
2018-11-06T19:36:56.869Z,13.60
2018-11-06T19:39:25.005Z,13.60
2018-11-06T19:41:53.164Z,13.60
2018-11-06T19:44:21.378Z,13.70
2018-11-06T19:46:49.588Z,13.70
2018-11-06T19:49:17.730Z,13.70
2018-11-06T19:51:45.848Z,13.60
2018-11-06T19:54:14.066Z,13.60
2018-11-06T19:56:42.140Z,13.60
2018-11-06T19:59:10.236Z,13.60
2018-11-06T20:01:38.361Z,13.60
2018-11-06T20:04:06.688Z,13.60
2018-11-06T20:06:34.779Z,13.60
2018-11-06T20:09:03.079Z,13.60
2018-11-06T20:11:31.204Z,13.60
2018-11-06T20:13:59.318Z,13.60
2018-11-06T20:16:27.475Z,13.70
2018-11-06T20:18:55.647Z,13.70
2018-11-06T20:21:23.780Z,13.70
2018-11-06T20:23:51.867Z,13.80
2018-11-06T20:26:20.007Z,13.80
2018-11-06T20:28:48.128Z,13.80
2018-11-06T20:31:16.270Z,13.80
2018-11-06T20:33:44.543Z,13.80
2018-11-06T20:36:12.675Z,13.80
2018-11-06T20:38:40.793Z,13.80
2018-11-06T20:41:08.897Z,13.80
2018-11-06T20:43:37.004Z,13.80
2018-11-06T20:46:05.519Z,13.80
2018-11-06T20:48:33.636Z,13.80
2018-11-06T20:51:01.768Z,13.70
2018-11-06T20:53:30.115Z,13.70
2018-11-06T20:55:58.164Z,13.70
2018-11-06T20:58:26.255Z,13.60
2018-11-06T21:00:54.380Z,13.60
2018-11-06T21:03:22.568Z,13.60
2018-11-06T21:05:50.698Z,13.50
2018-11-06T21:08:18.787Z,13.50
2018-11-06T21:10:46.919Z,13.50
2018-11-06T21:13:15.012Z,13.50
2018-11-06T21:15:43.097Z,13.50
2018-11-06T21:18:11.229Z,13.50
2018-11-06T21:20:39.316Z,13.40
2018-11-06T21:23:07.423Z,13.40
2018-11-06T21:25:35.640Z,13.40
2018-11-06T21:28:03.644Z,13.40
2018-11-06T21:30:31.760Z,13.30
2018-11-06T21:32:59.860Z,13.30
2018-11-06T21:35:28.047Z,13.30
2018-11-06T21:37:56.148Z,13.40
2018-11-06T21:40:24.247Z,13.30
2018-11-06T21:42:52.364Z,13.30
2018-11-06T21:45:20.513Z,13.30
2018-11-06T21:47:49.384Z,13.30
2018-11-06T21:50:17.909Z,13.30
2018-11-06T21:52:46.091Z,13.30
2018-11-06T21:55:15.284Z,13.30
2018-11-06T21:57:43.392Z,13.20
2018-11-06T22:00:13.914Z,13.30
2018-11-06T22:02:41.988Z,13.20
2018-11-06T22:05:12.363Z,13.20
2018-11-06T22:07:40.939Z,13.20
2018-11-06T22:10:10.897Z,13.20
2018-11-06T22:12:39.410Z,13.20
2018-11-06T22:15:08.537Z,13.20
2018-11-06T22:17:37.033Z,13.20
2018-11-06T22:20:06.388Z,13.10
2018-11-06T22:22:34.532Z,13.10
2018-11-06T22:25:02.864Z,13.10
2018-11-06T22:27:31.084Z,13.10
2018-11-06T22:29:59.185Z,13.10
2018-11-06T22:32:28.024Z,13.00
2018-11-06T22:34:56.404Z,13.00
2018-11-06T22:37:31.174Z,13.00
2018-11-06T22:39:59.218Z,13.00
2018-11-06T22:42:27.397Z,13.00
2018-11-06T22:44:55.503Z,13.00
2018-11-06T22:47:23.612Z,13.00
2018-11-06T22:50:04.902Z,13.00
2018-11-06T22:52:33.052Z,13.00
2018-11-06T22:55:01.244Z,13.00
2018-11-06T22:57:29.440Z,13.00
2018-11-06T22:59:57.623Z,12.90
2018-11-06T23:02:25.871Z,12.80
2018-11-06T23:04:54.018Z,12.80
2018-11-06T23:07:27.732Z,12.80
2018-11-06T23:09:55.876Z,12.80
2018-11-06T23:12:24.043Z,12.80
2018-11-06T23:14:52.180Z,12.80
2018-11-06T23:17:20.351Z,12.80
2018-11-06T23:19:48.520Z,12.80
2018-11-06T23:22:16.681Z,12.70
2018-11-06T23:24:44.848Z,12.70
2018-11-06T23:27:12.960Z,12.70
2018-11-06T23:29:41.117Z,12.60
2018-11-06T23:32:09.256Z,12.60
2018-11-06T23:34:37.402Z,12.60
2018-11-06T23:37:05.542Z,12.60
2018-11-06T23:39:33.701Z,12.60
2018-11-06T23:42:01.871Z,12.60
2018-11-06T23:44:30.013Z,12.50
2018-11-06T23:46:58.181Z,12.60
2018-11-06T23:49:26.716Z,12.50
2018-11-06T23:51:54.897Z,12.50
2018-11-06T23:54:23.064Z,12.60
2018-11-06T23:56:51.225Z,12.50
2018-11-06T23:59:19.395Z,12.50
